Time;durP1;ratioP1;P1;durP2;ratioP2;P2;SDS_P1;SDS_P2;PMS_P1;PMS_P2;Temp;Humidity;BMP_temperature;BMP_pressure;BME280_temperature;BME280_humidity;BME280_pressure;Samples;Min_cycle;Max_cycle;Signal;HPM_P1;HPM_P2
2022/11/17 00:00:32;;;;;;;8.87;8.07;;;5.70;99.90;;;;;;5026379;28;20195;-59
2022/11/17 00:03:01;;;;;;;9.20;8.30;;;5.70;99.90;;;;;;5030697;28;20234;-58
2022/11/17 00:05:27;;;;;;;9.73;7.93;;;5.80;99.90;;;;;;5028757;28;20218;-59
2022/11/17 00:07:52;;;;;;;8.43;7.63;;;5.80;99.90;;;;;;5028348;28;20218;-57
2022/11/17 00:10:21;;;;;;;9.10;8.30;;;5.80;99.90;;;;;;5028106;28;20192;-58
2022/11/17 00:15:31;;;;;;;10.43;8.57;;;5.90;99.90;;;;;;5026543;28;20210;-59
2022/11/17 00:23:45;;;;;;;8.67;7.87;;;5.90;99.90;;;;;;5028038;28;20570;-56
2022/11/17 00:26:32;;;;;;;8.47;7.47;;;5.90;99.90;;;;;;5029679;28;20938;-64
2022/11/17 00:29:06;;;;;;;9.17;8.27;;;5.80;99.90;;;;;;5025269;28;20264;-63
2022/11/17 00:34:22;;;;;;;9.10;8.30;;;5.80;99.90;;;;;;5024207;28;20214;-64
2022/11/17 00:36:50;;;;;;;9.17;8.17;;;5.80;99.90;;;;;;5028427;28;20682;-65
2022/11/17 00:39:18;;;;;;;9.40;8.53;;;5.70;99.90;;;;;;5028526;28;20242;-65
2022/11/17 00:41:43;;;;;;;11.20;9.87;;;5.70;99.90;;;;;;5026986;28;20344;-64
2022/11/17 00:44:10;;;;;;;9.97;8.97;;;5.60;99.90;;;;;;5026837;28;20211;-64
2022/11/17 00:46:37;;;;;;;8.83;7.93;;;5.60;99.90;;;;;;5026937;28;20214;-64
2022/11/17 00:49:03;;;;;;;9.17;8.27;;;5.50;99.90;;;;;;5026651;28;20293;-69
2022/11/17 00:51:29;;;;;;;10.37;8.47;;;5.50;99.90;;;;;;5029952;28;20713;-65
2022/11/17 00:53:54;;;;;;;9.43;8.53;;;5.40;99.90;;;;;;5028234;28;20234;-63
2022/11/17 00:56:20;;;;;;;9.43;8.53;;;5.40;99.90;;;;;;5027895;28;20237;-64
2022/11/17 00:58:46;;;;;;;8.60;7.70;;;5.40;99.90;;;;;;5030243;28;20230;-66
2022/11/17 01:01:11;;;;;;;8.63;7.83;;;5.30;99.90;;;;;;5025450;28;20245;-63
2022/11/17 01:03:37;;;;;;;10.10;8.97;;;5.30;99.90;;;;;;5029402;28;20552;-64
2022/11/17 01:06:07;;;;;;;9.67;8.67;;;5.30;99.90;;;;;;5028403;28;20228;-64
2022/11/17 01:08:33;;;;;;;9.70;8.23;;;5.20;99.90;;;;;;5027235;28;20214;-64
2022/11/17 01:11:11;;;;;;;9.23;8.30;;;5.30;99.90;;;;;;5026947;28;20584;-63
2022/11/17 01:13:38;;;;;;;8.17;7.37;;;5.30;99.90;;;;;;5028001;28;20192;-64
2022/11/17 01:16:09;;;;;;;9.20;7.77;;;5.30;99.90;;;;;;5025335;28;20199;-63
2022/11/17 01:18:35;;;;;;;9.30;8.33;;;5.30;99.90;;;;;;5024688;28;20214;-63
2022/11/17 01:21:13;;;;;;;9.40;8.50;;;5.30;99.90;;;;;;5024224;28;20175;-64
2022/11/17 01:23:40;;;;;;;8.93;8.03;;;5.30;99.90;;;;;;5024887;28;20180;-63
2022/11/17 01:26:09;;;;;;;9.47;8.57;;;5.30;99.90;;;;;;5024481;28;20184;-63
2022/11/17 01:28:35;;;;;;;10.37;9.10;;;5.30;99.90;;;;;;5024620;28;20208;-63
2022/11/17 01:31:06;;;;;;;8.03;7.33;;;5.20;99.90;;;;;;5024191;28;20199;-62
2022/11/17 01:33:32;;;;;;;8.37;7.57;;;5.20;99.90;;;;;;5024401;28;20177;-63
2022/11/17 01:36:25;;;;;;;8.47;7.77;;;5.10;99.90;;;;;;5024665;28;20326;-64
2022/11/17 01:38:50;;;;;;;8.90;8.07;;;5.10;99.90;;;;;;5022445;28;20183;-63
2022/11/17 01:41:19;;;;;;;8.30;7.60;;;5.10;99.90;;;;;;5021554;28;20211;-63
2022/11/17 01:43:50;;;;;;;7.90;7.23;;;5.10;99.90;;;;;;5025562;28;20203;-64
2022/11/17 01:46:37;;;;;;;11.53;7.57;;;5.10;99.90;;;;;;5026697;28;20222;-64
2022/11/17 01:49:11;;;;;;;9.67;8.47;;;5.10;99.90;;;;;;5025759;28;20211;-63
2022/11/17 01:51:42;;;;;;;8.80;7.07;;;5.10;99.90;;;;;;5024784;28;20202;-64
2022/11/17 01:54:10;;;;;;;9.80;7.77;;;5.00;99.90;;;;;;5026914;28;20207;-64
2022/11/17 01:56:41;;;;;;;9.47;8.53;;;5.10;99.90;;;;;;5026401;28;20218;-64
2022/11/17 01:59:21;;;;;;;8.90;8.03;;;5.10;99.90;;;;;;5027198;28;20304;-64
2022/11/17 02:01:56;;;;;;;9.30;8.17;;;5.10;99.90;;;;;;5025812;28;20614;-64
2022/11/17 02:04:27;;;;;;;9.27;8.30;;;5.10;99.90;;;;;;5024134;28;20198;-63
2022/11/17 02:07:01;;;;;;;7.87;7.17;;;5.00;99.90;;;;;;5026821;28;20199;-64
2022/11/17 02:09:26;;;;;;;9.23;8.27;;;5.00;99.90;;;;;;5026767;28;20224;-64
2022/11/17 02:11:55;;;;;;;10.53;8.23;;;5.00;99.90;;;;;;5026783;28;20214;-64
2022/11/17 02:14:21;;;;;;;9.33;8.43;;;5.00;99.90;;;;;;5023539;28;20656;-64
2022/11/17 02:16:46;;;;;;;8.17;7.40;;;5.00;99.90;;;;;;5024794;28;20203;-66
2022/11/17 02:19:15;;;;;;;8.67;7.77;;;5.00;99.90;;;;;;5026279;28;20667;-65
2022/11/17 02:22:22;;;;;;;9.77;8.77;;;5.00;99.90;;;;;;5022433;28;20587;-62
2022/11/17 02:25:13;;;;;;;10.47;8.50;;;5.00;99.90;;;;;;5025172;28;20209;-64
2022/11/17 02:27:48;;;;;;;8.33;7.53;;;5.00;99.90;;;;;;5024866;28;20290;-64
2022/11/17 02:30:19;;;;;;;9.23;8.33;;;5.00;99.90;;;;;;5026694;28;20216;-64
2022/11/17 02:33:10;;;;;;;8.97;8.13;;;5.00;99.90;;;;;;5027195;28;20253;-64
2022/11/17 02:35:57;;;;;;;10.00;9.00;;;5.00;99.90;;;;;;5026575;28;20206;-66
2022/11/17 02:38:34;;;;;;;10.47;9.47;;;5.00;99.90;;;;;;5024429;28;20686;-63
2022/11/17 02:41:25;;;;;;;8.97;8.07;;;4.90;99.90;;;;;;5024361;28;20209;-65
2022/11/17 02:44:09;;;;;;;9.07;8.17;;;4.90;99.90;;;;;;5026144;28;20214;-64
2022/11/17 02:46:39;;;;;;;9.20;8.33;;;4.90;99.90;;;;;;5024352;28;20677;-63
2022/11/17 02:49:12;;;;;;;8.23;7.40;;;4.90;99.90;;;;;;5026199;28;20222;-64
2022/11/17 02:51:39;;;;;;;9.90;8.90;;;4.90;99.90;;;;;;5025409;28;20213;-64
2022/11/17 02:54:06;;;;;;;9.50;8.50;;;5.00;99.90;;;;;;5025388;28;20207;-65
2022/11/17 02:56:31;;;;;;;9.97;9.03;;;5.00;99.90;;;;;;5025669;28;20223;-63
2022/11/17 02:59:01;;;;;;;9.63;8.63;;;5.00;99.90;;;;;;5024076;28;20228;-64
2022/11/17 03:01:50;;;;;;;9.27;8.00;;;5.00;99.90;;;;;;5022306;28;20294;-64
2022/11/17 03:04:24;;;;;;;10.80;8.83;;;4.90;99.90;;;;;;5023992;28;20211;-64
2022/11/17 03:07:04;;;;;;;9.37;8.50;;;4.90;99.90;;;;;;5026038;28;20230;-64
2022/11/17 03:09:39;;;;;;;10.30;9.20;;;4.80;99.90;;;;;;5024076;28;20227;-64
2022/11/17 03:12:10;;;;;;;9.97;8.97;;;4.80;99.90;;;;;;5028836;28;20206;-64
2022/11/17 03:14:49;;;;;;;10.23;9.10;;;4.90;99.90;;;;;;5026865;28;20287;-64
2022/11/17 03:17:26;;;;;;;10.63;8.13;;;4.80;99.90;;;;;;5032988;28;20554;-64
2022/11/17 03:20:10;;;;;;;9.37;8.20;;;4.80;99.90;;;;;;5025184;28;20239;-64
2022/11/17 03:22:54;;;;;;;9.07;8.27;;;4.80;99.90;;;;;;5024277;28;20561;-64
2022/11/17 03:25:22;;;;;;;9.90;9.00;;;4.80;99.90;;;;;;5025597;28;20665;-64
2022/11/17 03:27:52;;;;;;;11.83;8.80;;;4.80;99.90;;;;;;5025180;28;20217;-64
2022/11/17 03:30:21;;;;;;;9.13;8.23;;;4.80;99.90;;;;;;5024962;28;20836;-64
2022/11/17 03:32:50;;;;;;;10.27;8.60;;;4.80;99.90;;;;;;5026322;28;20234;-64
2022/11/17 03:35:20;;;;;;;9.50;8.60;;;4.80;99.90;;;;;;5027649;28;20227;-64
2022/11/17 03:37:50;;;;;;;9.90;9.00;;;4.80;99.90;;;;;;5030008;28;20249;-64
2022/11/17 03:40:24;;;;;;;9.57;8.67;;;4.90;99.90;;;;;;5029034;28;20225;-66
2022/11/17 03:42:54;;;;;;;12.10;8.80;;;4.90;99.90;;;;;;5024455;28;20209;-66
2022/11/17 03:45:27;;;;;;;9.77;8.80;;;4.90;99.90;;;;;;5029125;28;20729;-66
2022/11/17 03:48:03;;;;;;;9.63;8.63;;;4.90;99.90;;;;;;5029573;28;20222;-65
2022/11/17 03:50:36;;;;;;;9.33;8.47;;;5.00;99.90;;;;;;5029792;28;20195;-66
2022/11/17 03:53:03;;;;;;;10.70;8.00;;;4.90;99.90;;;;;;5029038;28;20199;-65
2022/11/17 03:55:55;;;;;;;9.03;8.13;;;4.90;99.90;;;;;;5027871;28;20566;-65
2022/11/17 03:58:23;;;;;;;9.33;8.33;;;4.90;99.90;;;;;;5027002;28;20343;-64
2022/11/17 04:00:52;;;;;;;9.90;8.90;;;4.80;99.90;;;;;;5030724;28;20571;-66
2022/11/17 04:03:21;;;;;;;8.90;8.00;;;4.80;99.90;;;;;;5040545;28;20203;-66
2022/11/17 04:05:46;;;;;;;9.40;8.50;;;4.80;99.90;;;;;;5024362;28;21001;-66
2022/11/17 04:08:12;;;;;;;9.73;8.73;;;4.80;99.90;;;;;;5032056;28;20408;-66
2022/11/17 04:15:55;;;;;;;10.00;8.90;;;4.80;99.90;;;;;;5038472;28;20198;-66
2022/11/17 04:16:07;;;;;;;10.73;9.10;;;4.90;99.90;;;;;;5038679;28;20244;-64
2022/11/17 04:18:33;;;;;;;14.20;9.23;;;4.90;99.90;;;;;;5038674;28;20213;-64
2022/11/17 04:20:58;;;;;;;10.40;9.30;;;4.90;99.90;;;;;;5036899;28;20226;-63
2022/11/17 04:23:24;;;;;;;10.00;9.10;;;4.90;99.90;;;;;;5038320;28;20919;-63
2022/11/17 04:28:40;;;;;;;8.53;7.73;;;4.90;99.90;;;;;;5038216;28;20701;-63
2022/11/17 04:31:26;;;;;;;9.73;8.73;;;4.90;99.90;;;;;;5037771;28;20202;-65
2022/11/17 04:34:02;;;;;;;9.90;8.90;;;4.90;99.90;;;;;;5035772;28;20234;-62
2022/11/17 04:36:35;;;;;;;10.83;9.63;;;4.90;99.90;;;;;;5038283;28;20209;-63
2022/11/17 04:39:01;;;;;;;9.50;8.50;;;4.90;99.90;;;;;;5035636;28;20211;-63
2022/11/17 04:44:15;;;;;;;12.03;9.73;;;4.90;99.90;;;;;;5035305;28;20209;-62
2022/11/17 04:46:43;;;;;;;10.03;9.03;;;4.80;99.90;;;;;;5031956;28;20670;-64
2022/11/17 04:49:08;;;;;;;10.23;9.23;;;4.80;99.90;;;;;;5037720;28;20222;-63
2022/11/17 04:51:35;;;;;;;9.83;8.93;;;4.80;99.90;;;;;;5037452;28;20205;-65
2022/11/17 04:54:01;;;;;;;11.33;9.60;;;4.90;99.90;;;;;;5037889;28;20659;-65
2022/11/17 04:56:27;;;;;;;10.77;9.60;;;4.90;99.90;;;;;;5035356;28;20234;-65
2022/11/17 04:58:53;;;;;;;10.67;9.57;;;4.90;99.90;;;;;;5037425;28;20674;-65
2022/11/17 05:01:19;;;;;;;11.77;10.00;;;4.90;99.90;;;;;;5037161;28;20261;-65
2022/11/17 05:03:53;;;;;;;11.83;10.23;;;4.90;99.90;;;;;;5037872;28;20198;-65
2022/11/17 05:06:24;;;;;;;13.20;9.87;;;4.90;99.90;;;;;;5035791;28;20202;-63
2022/11/17 05:08:54;;;;;;;11.33;9.67;;;4.90;99.90;;;;;;5037370;28;20749;-64
2022/11/17 05:14:04;;;;;;;13.13;10.60;;;4.90;99.90;;;;;;5037829;28;20205;-65
2022/11/17 05:19:17;;;;;;;10.50;9.37;;;4.90;99.90;;;;;;5034358;28;20233;-65
2022/11/17 05:21:43;;;;;;;11.90;9.97;;;4.90;99.90;;;;;;5028689;28;20949;-65
2022/11/17 05:24:09;;;;;;;12.53;11.23;;;4.80;99.90;;;;;;5024918;28;20198;-64
2022/11/17 05:26:39;;;;;;;11.37;10.20;;;4.90;99.90;;;;;;5029681;28;20255;-65
2022/11/17 05:29:06;;;;;;;11.63;10.47;;;4.80;99.90;;;;;;5037077;28;20711;-65
2022/11/17 05:31:32;;;;;;;13.50;10.57;;;4.90;99.90;;;;;;5037158;28;20255;-65
2022/11/17 05:33:58;;;;;;;11.00;9.93;;;4.90;99.90;;;;;;5036267;28;20596;-65
2022/11/17 05:36:26;;;;;;;14.20;10.67;;;4.90;99.90;;;;;;5037208;28;20283;-65
2022/11/17 05:38:52;;;;;;;10.57;9.57;;;4.90;99.90;;;;;;5036883;28;20595;-65
2022/11/17 05:41:18;;;;;;;11.47;10.10;;;5.00;99.90;;;;;;5036527;28;20268;-65
2022/11/17 05:43:44;;;;;;;12.03;10.20;;;4.90;99.90;;;;;;5033928;28;20229;-66
2022/11/17 05:46:11;;;;;;;10.30;9.20;;;4.90;99.90;;;;;;5025983;28;20238;-65
2022/11/17 05:48:38;;;;;;;11.80;10.13;;;4.90;99.90;;;;;;5025959;28;20207;-65
2022/11/17 05:51:04;;;;;;;12.63;10.23;;;4.90;99.90;;;;;;5026513;28;20230;-65
2022/11/17 05:53:30;;;;;;;12.43;10.40;;;4.90;99.90;;;;;;5028464;28;20229;-64
2022/11/17 05:56:12;;;;;;;10.03;9.13;;;5.00;99.90;;;;;;5024005;28;20282;-64
2022/11/17 05:58:41;;;;;;;10.93;9.87;;;5.00;99.90;;;;;;5022857;28;20214;-64
2022/11/17 06:01:08;;;;;;;12.93;9.40;;;5.00;99.90;;;;;;5026755;28;20210;-64
2022/11/17 06:03:42;;;;;;;11.00;9.90;;;5.00;99.90;;;;;;5024859;28;20613;-64
2022/11/17 06:06:08;;;;;;;11.10;10.00;;;5.10;99.90;;;;;;5024981;28;20207;-62
2022/11/17 06:08:35;;;;;;;12.10;8.90;;;5.10;99.90;;;;;;5028167;28;20226;-62
2022/11/17 06:11:00;;;;;;;11.50;9.93;;;5.10;99.90;;;;;;5024131;28;20204;-62
2022/11/17 06:13:27;;;;;;;12.93;11.63;;;5.10;99.90;;;;;;5026324;28;20558;-62
2022/11/17 06:15:55;;;;;;;12.47;10.53;;;5.10;99.90;;;;;;5024962;28;20508;-62
2022/11/17 06:18:26;;;;;;;13.20;11.80;;;5.10;99.90;;;;;;5033505;28;20218;-63
2022/11/17 06:20:52;;;;;;;11.07;9.90;;;5.20;99.90;;;;;;5036693;28;20233;-62
2022/11/17 06:23:21;;;;;;;10.23;9.03;;;5.20;99.90;;;;;;5036058;28;20596;-62
2022/11/17 06:25:47;;;;;;;10.30;9.20;;;5.20;99.90;;;;;;5034767;28;20291;-63
2022/11/17 06:28:15;;;;;;;11.90;10.33;;;5.10;99.90;;;;;;5035217;28;20238;-62
2022/11/17 06:30:41;;;;;;;12.83;10.47;;;5.10;99.90;;;;;;5036354;28;20191;-62
2022/11/17 06:33:08;;;;;;;10.80;9.80;;;5.20;99.90;;;;;;5036593;28;20194;-63
2022/11/17 06:35:34;;;;;;;11.63;10.53;;;5.20;99.90;;;;;;5036002;28;20256;-63
2022/11/17 06:38:01;;;;;;;11.97;10.13;;;5.10;99.90;;;;;;5033008;28;20689;-64
2022/11/17 06:40:27;;;;;;;13.60;10.27;;;5.10;99.90;;;;;;5035660;28;20198;-66
2022/11/17 06:43:08;;;;;;;11.73;9.13;;;5.10;99.90;;;;;;5036274;28;20703;-64
2022/11/17 06:45:42;;;;;;;12.13;10.23;;;5.10;99.90;;;;;;5036474;28;20203;-65
2022/11/17 06:48:10;;;;;;;11.23;10.07;;;5.20;99.90;;;;;;5035628;28;20219;-63
2022/11/17 06:50:35;;;;;;;10.37;9.33;;;5.20;99.90;;;;;;5036208;28;20199;-63
2022/11/17 06:53:04;;;;;;;12.27;9.90;;;5.20;99.90;;;;;;5033351;28;20571;-64
2022/11/17 06:55:30;;;;;;;12.43;9.77;;;5.20;99.90;;;;;;5023698;28;20191;-64
2022/11/17 06:58:02;;;;;;;10.30;9.13;;;5.20;99.90;;;;;;5035111;28;20226;-64
2022/11/17 07:00:28;;;;;;;10.23;9.17;;;5.20;99.90;;;;;;5036311;28;20195;-61
2022/11/17 07:03:08;;;;;;;11.40;10.03;;;5.30;99.90;;;;;;5036833;28;20195;-60
2022/11/17 07:05:34;;;;;;;11.80;10.60;;;5.30;99.90;;;;;;5036813;28;20199;-63
2022/11/17 07:08:02;;;;;;;10.27;9.23;;;5.30;99.90;;;;;;5036540;28;20222;-63
2022/11/17 07:10:28;;;;;;;10.40;9.37;;;5.30;99.90;;;;;;5038014;28;20741;-63
2022/11/17 07:12:54;;;;;;;10.73;9.57;;;5.40;99.90;;;;;;5040336;28;20202;-65
2022/11/17 07:15:20;;;;;;;10.50;9.40;;;5.30;99.90;;;;;;5039769;28;20199;-66
2022/11/17 07:17:46;;;;;;;11.20;10.00;;;5.30;99.90;;;;;;5040065;28;20241;-64
2022/11/17 07:20:12;;;;;;;11.60;9.50;;;5.30;99.90;;;;;;5039978;28;20230;-65
2022/11/17 07:22:38;;;;;;;10.10;9.03;;;5.30;99.90;;;;;;5040917;28;20285;-66
2022/11/17 07:25:04;;;;;;;10.73;9.63;;;5.30;99.90;;;;;;5038336;28;20317;-65
2022/11/17 07:27:29;;;;;;;13.47;9.87;;;5.30;99.90;;;;;;5040366;28;20315;-65
2022/11/17 07:29:56;;;;;;;10.43;9.37;;;5.40;99.90;;;;;;5039936;28;20689;-64
2022/11/17 07:32:22;;;;;;;11.03;9.70;;;5.40;99.90;;;;;;5039766;28;20333;-64
2022/11/17 07:34:47;;;;;;;10.47;9.47;;;5.40;99.90;;;;;;5040375;28;20716;-64
2022/11/17 07:37:13;;;;;;;9.87;8.80;;;5.40;99.90;;;;;;5030175;28;20195;-65
2022/11/17 07:39:38;;;;;;;11.47;8.87;;;5.40;99.90;;;;;;5027507;28;20198;-62
2022/11/17 07:42:04;;;;;;;9.97;8.97;;;5.50;99.90;;;;;;5030136;28;20243;-64
2022/11/17 07:44:29;;;;;;;11.67;9.27;;;5.50;99.90;;;;;;5029400;28;20708;-62
2022/11/17 07:46:55;;;;;;;9.93;8.93;;;5.50;99.90;;;;;;5029801;28;20202;-68
2022/11/17 07:49:21;;;;;;;9.43;8.53;;;5.50;99.90;;;;;;5039635;28;20223;-59
2022/11/17 07:51:46;;;;;;;9.90;9.00;;;5.50;99.90;;;;;;5039922;28;20210;-60
2022/11/17 07:54:11;;;;;;;10.17;8.83;;;5.50;99.90;;;;;;5037436;28;20202;-59
2022/11/17 07:56:37;;;;;;;9.63;8.70;;;5.60;99.90;;;;;;5039243;28;20221;-61
2022/11/17 07:59:03;;;;;;;9.20;8.23;;;5.60;99.90;;;;;;5028336;28;20342;-64
2022/11/17 08:01:28;;;;;;;9.20;8.27;;;5.60;99.90;;;;;;5032196;28;20748;-60
2022/11/17 08:03:54;;;;;;;11.43;9.40;;;5.70;99.90;;;;;;5034093;28;20217;-57
2022/11/17 08:06:19;;;;;;;11.20;8.03;;;5.70;99.90;;;;;;5031620;28;20316;-59
2022/11/17 08:08:47;;;;;;;9.83;8.83;;;5.80;99.90;;;;;;5036849;28;20206;-57
2022/11/17 08:11:12;;;;;;;9.60;7.47;;;5.90;99.90;;;;;;5035088;28;20199;-60
2022/11/17 08:13:39;;;;;;;9.90;8.70;;;6.00;99.90;;;;;;5028724;28;20195;-59
2022/11/17 08:16:06;;;;;;;10.20;9.20;;;6.20;99.90;;;;;;5026033;28;20200;-58
2022/11/17 08:18:32;;;;;;;9.10;8.13;;;6.30;99.90;;;;;;5032481;28;20254;-57
2022/11/17 08:21:12;;;;;;;8.47;7.67;;;6.40;99.90;;;;;;5026449;28;20673;-58
2022/11/17 08:23:38;;;;;;;8.80;7.90;;;6.40;99.90;;;;;;5030718;28;20226;-57
2022/11/17 08:26:05;;;;;;;9.93;8.33;;;6.40;99.90;;;;;;5029409;28;20223;-59
2022/11/17 08:28:31;;;;;;;8.60;7.70;;;6.30;99.90;;;;;;5026967;28;20218;-62
2022/11/17 08:30:58;;;;;;;9.13;7.93;;;6.40;99.90;;;;;;5028449;28;20571;-59
2022/11/17 08:33:24;;;;;;;10.53;8.67;;;6.40;99.90;;;;;;5027836;28;20191;-60
2022/11/17 08:35:50;;;;;;;11.77;8.03;;;6.60;99.90;;;;;;5025143;28;20251;-58
2022/11/17 08:38:15;;;;;;;9.77;8.53;;;6.60;99.90;;;;;;5028662;28;20531;-57
2022/11/17 08:40:41;;;;;;;12.50;8.13;;;6.70;99.90;;;;;;5026229;28;20198;-57
2022/11/17 08:43:07;;;;;;;9.77;8.87;;;6.90;99.90;;;;;;5027925;28;20574;-59
2022/11/17 08:45:32;;;;;;;9.63;7.80;;;7.00;99.90;;;;;;5030288;28;20632;-56
2022/11/17 08:47:58;;;;;;;9.73;8.43;;;7.20;99.90;;;;;;5028441;28;20798;-61
2022/11/17 08:50:24;;;;;;;9.27;8.30;;;7.20;99.90;;;;;;5019191;28;20192;-61
2022/11/17 08:52:51;;;;;;;9.60;8.07;;;7.10;99.90;;;;;;5026091;28;20200;-59
2022/11/17 08:55:16;;;;;;;11.13;8.50;;;6.90;99.90;;;;;;5028445;28;20212;-63
2022/11/17 08:57:42;;;;;;;9.50;7.80;;;6.80;99.90;;;;;;5028094;28;21075;-59
2022/11/17 09:00:09;;;;;;;10.03;8.60;;;6.60;99.90;;;;;;5027691;28;20483;-60
2022/11/17 09:02:35;;;;;;;10.00;8.77;;;6.60;99.90;;;;;;5028244;28;20195;-63
2022/11/17 09:05:01;;;;;;;11.30;9.03;;;6.50;99.90;;;;;;5028207;28;20286;-62
2022/11/17 09:07:26;;;;;;;10.03;9.13;;;6.40;99.90;;;;;;5025373;28;20375;-60
2022/11/17 09:09:52;;;;;;;11.67;10.07;;;6.30;99.90;;;;;;5027756;28;20369;-59
2022/11/17 09:12:17;;;;;;;10.20;9.20;;;6.30;99.90;;;;;;5027557;28;20198;-60
2022/11/17 09:14:43;;;;;;;11.03;8.90;;;6.40;99.90;;;;;;5027992;28;20201;-61
2022/11/17 09:17:09;;;;;;;11.27;8.70;;;6.30;99.90;;;;;;5029212;28;20692;-61
2022/11/17 09:19:34;;;;;;;15.30;9.23;;;6.30;99.90;;;;;;5023746;28;20290;-61
2022/11/17 09:22:00;;;;;;;10.30;9.20;;;6.30;99.90;;;;;;5026053;28;20215;-61
2022/11/17 09:24:25;;;;;;;10.43;8.97;;;6.30;99.90;;;;;;5027448;28;20207;-61
2022/11/17 09:26:53;;;;;;;10.70;9.60;;;6.30;99.90;;;;;;5027937;28;20199;-61
2022/11/17 09:29:19;;;;;;;12.87;9.37;;;6.30;99.90;;;;;;5027516;28;20776;-61
2022/11/17 09:31:44;;;;;;;13.57;9.33;;;6.30;99.90;;;;;;5024602;28;20289;-62
2022/11/17 09:34:10;;;;;;;12.23;10.53;;;6.20;99.90;;;;;;5026739;28;20241;-61
2022/11/17 09:36:35;;;;;;;12.40;10.20;;;6.10;99.90;;;;;;5026570;28;20282;-61
2022/11/17 09:39:01;;;;;;;11.80;10.60;;;6.10;99.90;;;;;;5026846;28;20656;-61
2022/11/17 09:41:48;;;;;;;13.73;10.23;;;6.10;99.90;;;;;;5026707;28;20991;-61
2022/11/17 09:44:38;;;;;;;15.03;11.23;;;6.10;99.90;;;;;;5025114;28;20747;-61
2022/11/17 09:47:15;;;;;;;12.70;10.73;;;6.20;99.90;;;;;;5026455;28;20207;-62
2022/11/17 09:49:56;;;;;;;12.13;9.93;;;6.10;99.90;;;;;;5023176;28;20207;-62
2022/11/17 09:52:36;;;;;;;11.43;10.17;;;6.10;99.90;;;;;;5024630;28;20259;-61
2022/11/17 09:55:08;;;;;;;12.77;9.90;;;6.10;99.90;;;;;;5026510;28;20233;-61
2022/11/17 09:57:47;;;;;;;12.57;9.73;;;6.10;99.90;;;;;;5026069;28;20219;-61
2022/11/17 10:00:14;;;;;;;14.37;11.07;;;6.10;99.90;;;;;;5024187;28;20700;-61
2022/11/17 10:02:41;;;;;;;12.43;11.10;;;6.20;99.90;;;;;;5026970;28;20207;-62
2022/11/17 10:05:15;;;;;;;11.70;10.50;;;6.20;99.90;;;;;;5027543;28;20286;-62
2022/11/17 10:07:49;;;;;;;14.33;10.23;;;6.20;99.90;;;;;;5026742;28;20214;-62
2022/11/17 10:10:40;;;;;;;11.73;10.50;;;6.10;99.90;;;;;;5026290;28;20634;-60
2022/11/17 10:13:16;;;;;;;12.93;10.60;;;6.10;99.90;;;;;;5022935;28;20207;-61
2022/11/17 10:15:50;;;;;;;12.30;10.30;;;6.10;99.90;;;;;;5026812;28;20190;-60
2022/11/17 10:18:16;;;;;;;13.60;11.53;;;6.10;99.90;;;;;;5024630;28;20202;-61
2022/11/17 10:20:43;;;;;;;13.27;11.77;;;6.20;99.90;;;;;;5025518;28;20252;-61
2022/11/17 10:23:13;;;;;;;14.97;11.23;;;6.20;99.90;;;;;;5026298;28;20692;-61
2022/11/17 10:25:44;;;;;;;11.77;10.07;;;6.20;99.90;;;;;;5025984;28;20222;-61
2022/11/17 10:28:30;;;;;;;13.20;11.57;;;6.20;99.90;;;;;;5027936;28;20202;-62
2022/11/17 10:31:01;;;;;;;13.70;10.90;;;6.20;99.90;;;;;;5025281;28;20665;-60
2022/11/17 10:33:42;;;;;;;12.20;10.97;;;6.20;99.90;;;;;;5025944;28;20203;-61
2022/11/17 10:36:25;;;;;;;13.27;10.77;;;6.30;99.90;;;;;;5024348;28;20199;-61
2022/11/17 10:38:53;;;;;;;15.17;11.03;;;6.20;99.90;;;;;;5026759;28;20203;-61
2022/11/17 10:41:22;;;;;;;15.93;11.40;;;6.20;99.90;;;;;;5028826;28;20300;-61
2022/11/17 10:44:01;;;;;;;12.67;10.07;;;6.20;99.90;;;;;;5025953;28;20199;-62
2022/11/17 10:46:27;;;;;;;12.40;10.90;;;6.20;99.90;;;;;;5029568;28;20229;-62
2022/11/17 10:49:02;;;;;;;14.17;11.77;;;6.20;99.90;;;;;;5027695;28;20245;-61
2022/11/17 10:51:32;;;;;;;13.80;10.77;;;6.20;99.90;;;;;;5032810;28;20506;-61
2022/11/17 10:54:20;;;;;;;14.40;11.40;;;6.20;99.90;;;;;;5028705;28;20202;-62
2022/11/17 10:56:52;;;;;;;11.60;10.40;;;6.20;99.90;;;;;;5029895;28;20616;-62
2022/11/17 10:59:19;;;;;;;14.53;10.47;;;6.30;99.90;;;;;;5032865;28;20202;-62
2022/11/17 11:01:49;;;;;;;10.97;9.23;;;6.30;99.90;;;;;;5023344;28;20215;-62
2022/11/17 11:04:32;;;;;;;10.57;9.27;;;6.30;99.90;;;;;;5030132;28;20649;-62
2022/11/17 11:07:19;;;;;;;10.50;9.23;;;6.30;99.90;;;;;;5027568;28;20203;-61
2022/11/17 11:10:05;;;;;;;12.53;11.00;;;6.30;99.90;;;;;;5029341;28;20219;-63
2022/11/17 11:12:52;;;;;;;14.90;9.97;;;6.30;99.90;;;;;;5028820;28;20246;-62
2022/11/17 11:15:23;;;;;;;12.03;10.33;;;6.30;99.90;;;;;;5028361;28;20194;-62
2022/11/17 11:17:49;;;;;;;12.03;9.87;;;6.30;99.90;;;;;;5029201;28;20739;-62
2022/11/17 11:20:18;;;;;;;14.63;10.53;;;6.30;99.90;;;;;;5029507;28;20227;-62
2022/11/17 11:23:04;;;;;;;13.17;10.90;;;6.30;99.90;;;;;;5028570;28;20688;-62
2022/11/17 11:25:39;;;;;;;11.50;9.83;;;6.30;99.90;;;;;;5030097;28;20722;-61
2022/11/17 11:28:25;;;;;;;13.83;10.17;;;6.30;99.90;;;;;;5028948;28;20747;-62
2022/11/17 11:31:08;;;;;;;10.90;9.57;;;6.30;99.90;;;;;;5027932;28;20226;-62
2022/11/17 11:33:52;;;;;;;13.07;10.00;;;6.30;99.90;;;;;;5030469;28;20549;-61
2022/11/17 11:36:27;;;;;;;12.50;9.50;;;6.30;99.90;;;;;;5029242;28;21196;-62
2022/11/17 11:39:28;;;;;;;32.93;24.70;;;6.30;99.90;;;;;;5027762;28;20695;-62
2022/11/17 11:41:59;;;;;;;17.23;12.10;;;6.30;99.90;;;;;;5028831;28;20269;-62
2022/11/17 11:44:50;;;;;;;11.97;10.77;;;6.40;99.90;;;;;;5026660;28;20226;-62
2022/11/17 11:47:33;;;;;;;15.93;12.30;;;6.30;99.90;;;;;;5026032;28;20286;-62
2022/11/17 11:50:16;;;;;;;12.60;9.80;;;6.40;99.90;;;;;;5027138;28;20487;-62
2022/11/17 11:52:47;;;;;;;11.70;10.00;;;6.40;99.90;;;;;;5028377;28;20203;-62
2022/11/17 11:55:33;;;;;;;16.43;9.53;;;6.40;99.90;;;;;;5026918;28;20215;-62
2022/11/17 11:58:20;;;;;;;11.57;10.03;;;6.40;99.90;;;;;;5028941;28;20825;-62
2022/11/17 12:00:49;;;;;;;10.30;9.27;;;6.50;99.90;;;;;;5031860;28;20206;-62
2022/11/17 12:03:24;;;;;;;10.63;8.93;;;6.50;99.90;;;;;;5025127;28;20203;-62
2022/11/17 12:09:22;;;;;;;10.83;8.87;;;6.50;99.90;;;;;;5028331;28;20270;-61
2022/11/17 12:12:01;;;;;;;10.50;9.40;;;6.40;99.90;;;;;;5026403;28;20230;-61
2022/11/17 12:14:35;;;;;;;9.60;8.20;;;6.40;99.90;;;;;;5027347;28;20228;-61
2022/11/17 12:17:24;;;;;;;11.17;9.40;;;6.40;99.90;;;;;;5027914;28;20206;-61
2022/11/17 12:19:56;;;;;;;9.70;8.70;;;6.40;99.90;;;;;;5026692;28;20968;-61
2022/11/17 12:22:28;;;;;;;10.50;9.37;;;6.40;99.90;;;;;;5030022;28;20317;-61
2022/11/17 12:25:15;;;;;;;10.43;8.70;;;6.40;99.90;;;;;;5028138;28;20203;-60
2022/11/17 12:27:44;;;;;;;9.63;8.63;;;6.60;99.90;;;;;;5023343;28;20214;-58
2022/11/17 12:30:45;;;;;;;11.47;9.07;;;6.80;99.90;;;;;;5028955;28;20277;-59
2022/11/17 12:33:10;;;;;;;12.63;8.73;;;6.90;99.90;;;;;;5018934;28;20199;-58
2022/11/17 12:35:38;;;;;;;9.07;8.10;;;6.80;99.90;;;;;;5027601;28;20206;-59
2022/11/17 12:38:15;;;;;;;12.13;9.23;;;6.80;99.90;;;;;;5028972;28;20266;-59
2022/11/17 12:40:45;;;;;;;10.50;9.43;;;7.00;99.90;;;;;;5027377;28;20195;-58
2022/11/17 12:43:13;;;;;;;9.57;8.57;;;7.10;99.90;;;;;;5029765;28;20273;-58
2022/11/17 12:45:51;;;;;;;10.87;9.17;;;7.20;99.90;;;;;;5027575;28;20205;-58
2022/11/17 12:48:31;;;;;;;11.03;9.90;;;7.40;99.90;;;;;;5029373;28;20286;-58
2022/11/17 12:51:20;;;;;;;37.50;19.93;;;7.40;99.90;;;;;;5027847;28;20190;-59
2022/11/17 12:54:11;;;;;;;11.17;8.90;;;7.40;99.90;;;;;;5028697;28;20301;-59
2022/11/17 12:56:50;;;;;;;9.80;8.80;;;7.40;99.90;;;;;;5030220;28;20219;-56
2022/11/17 12:59:27;;;;;;;12.70;9.80;;;7.20;99.90;;;;;;5027527;28;20206;-59
2022/11/17 13:02:18;;;;;;;35.40;15.83;;;7.20;99.90;;;;;;5028247;28;20520;-59
2022/11/17 13:04:51;;;;;;;13.50;11.30;;;7.20;99.90;;;;;;5029811;28;20530;-59
2022/11/17 13:07:20;;;;;;;10.47;9.37;;;7.30;99.90;;;;;;5021760;28;20200;-58
2022/11/17 13:09:50;;;;;;;11.20;9.73;;;7.20;99.90;;;;;;5026119;28;20572;-59
2022/11/17 13:12:22;;;;;;;13.40;9.77;;;7.10;99.90;;;;;;5028817;28;20202;-59
2022/11/17 13:14:53;;;;;;;26.00;15.33;;;7.10;99.90;;;;;;5027743;28;20419;-59
2022/11/17 13:17:28;;;;;;;12.07;10.60;;;7.40;99.90;;;;;;5031540;28;20207;-59
2022/11/17 13:20:15;;;;;;;14.57;9.87;;;7.60;99.90;;;;;;5037057;28;20206;-59
2022/11/17 13:22:41;;;;;;;11.07;9.97;;;7.60;99.90;;;;;;5037985;28;20662;-58
2022/11/17 13:25:22;;;;;;;10.97;8.97;;;7.60;99.90;;;;;;5038228;28;20229;-57
2022/11/17 13:27:48;;;;;;;9.20;8.30;;;7.60;99.90;;;;;;5037771;28;20198;-59
2022/11/17 13:30:14;;;;;;;10.13;9.03;;;7.70;99.90;;;;;;5038186;28;20226;-58
2022/11/17 13:32:41;;;;;;;10.40;9.23;;;7.60;99.90;;;;;;5037304;28;20202;-59
2022/11/17 13:35:19;;;;;;;10.43;9.33;;;7.40;99.90;;;;;;5035922;28;20234;-56
2022/11/17 13:37:44;;;;;;;17.97;10.83;;;7.30;99.90;;;;;;5037015;28;20226;-58